Time;durP1;ratioP1;P1;durP2;ratioP2;P2;SDS_P1;SDS_P2;PMS_P1;PMS_P2;Temp;Humidity;BMP_temperature;BMP_pressure;BME280_temperature;BME280_humidity;BME280_pressure;Samples;Min_cycle;Max_cycle;Signal;HPM_P1;HPM_P2
2022/03/20 00:02:10;;;;;;;;;;;6.00;73.60;;;;;;2349030;57;20162;-75
2022/03/20 00:04:36;;;;;;;;;;;5.90;73.60;;;;;;2348957;57;20085;-75
2022/03/20 00:07:03;;;;;;;;;;;5.90;74.00;;;;;;2348961;57;20069;-78
2022/03/20 00:09:30;;;;;;;;;;;5.90;73.80;;;;;;2595893;52;20288;-77
2022/03/20 00:11:56;;;;;;;;;;;5.90;73.90;;;;;;2348007;57;20144;-78
2022/03/20 00:14:23;;;;;;;;;;;5.90;73.80;;;;;;2347410;57;20077;-78
2022/03/20 00:16:49;;;;;;;;;;;5.90;73.90;;;;;;2595506;52;20069;-77
2022/03/20 00:19:16;;;;;;;;;;;5.90;73.90;;;;;;2348401;57;20080;-76
2022/03/20 00:21:42;;;;;;;;;;;5.90;74.00;;;;;;2349628;57;20106;-76
2022/03/20 00:24:09;;;;;;;;;;;5.90;74.10;;;;;;2597417;53;20325;-76
2022/03/20 00:26:35;;;;;;;;;;;5.90;74.20;;;;;;2349941;57;20109;-76
2022/03/20 00:29:02;;;;;;;;;;;5.80;74.20;;;;;;2349583;57;20355;-76
2022/03/20 00:31:32;;;;;;;;;;;5.80;74.30;;;;;;2597121;53;20117;-76
2022/03/20 00:33:58;;;;;;;;;;;5.80;74.30;;;;;;2349282;57;20065;-76
2022/03/20 00:36:25;;;;;;;;;;;5.80;75.10;;;;;;2349046;57;20065;-76
2022/03/20 00:38:51;;;;;;;;;;;5.80;74.30;;;;;;2349348;57;20300;-76
2022/03/20 00:41:18;;;;;;;;;;;5.80;74.30;;;;;;2596912;52;20057;-76
2022/03/20 00:43:44;;;;;;;;;;;5.80;74.50;;;;;;2597280;52;20300;-76
2022/03/20 00:46:12;;;;;;;;;;;5.80;74.30;;;;;;2597335;53;20070;-76
2022/03/20 00:48:38;;;;;;;;;;;5.80;74.40;;;;;;2350079;57;20077;-78
2022/03/20 00:51:06;;;;;;;;;;;5.80;74.40;;;;;;2597087;52;20129;-76
2022/03/20 00:53:32;;;;;;;;;;;5.70;74.30;;;;;;2596824;53;20155;-76
2022/03/20 00:55:59;;;;;;;;;;;5.70;74.40;;;;;;2597418;52;20085;-76
2022/03/20 00:58:25;;;;;;;;;;;5.70;74.60;;;;;;2597377;52;20093;-77
2022/03/20 01:00:52;;;;;;;;;;;5.60;74.70;;;;;;2349471;57;20129;-76
2022/03/20 01:03:18;;;;;;;;;;;5.60;74.80;;;;;;2597655;53;20054;-76
2022/03/20 01:05:45;;;;;;;;;;;5.60;75.00;;;;;;2350085;57;20065;-76
2022/03/20 01:08:11;;;;;;;;;;;5.60;75.10;;;;;;2349295;57;20065;-76
2022/03/20 01:10:38;;;;;;;;;;;5.50;75.20;;;;;;2348987;57;20129;-75
2022/03/20 01:13:04;;;;;;;;;;;5.50;75.40;;;;;;2349369;57;20141;-76
2022/03/20 01:15:31;;;;;;;;;;;5.50;75.40;;;;;;2349469;57;20081;-76
2022/03/20 01:17:58;;;;;;;;;;;5.50;75.50;;;;;;2597081;52;20077;-76
2022/03/20 01:20:25;;;;;;;;;;;5.50;75.50;;;;;;2349348;57;20077;-77
2022/03/20 01:22:52;;;;;;;;;;;5.50;75.60;;;;;;2349599;57;20140;-76
2022/03/20 01:25:19;;;;;;;;;;;5.50;75.70;;;;;;2349752;57;20085;-76
2022/03/20 01:27:45;;;;;;;;;;;5.50;75.80;;;;;;2348625;57;20408;-76
2022/03/20 01:30:12;;;;;;;;;;;5.50;75.80;;;;;;2349507;57;20193;-77
2022/03/20 01:32:39;;;;;;;;;;;5.40;75.90;;;;;;2595051;53;20069;-76
2022/03/20 01:35:08;;;;;;;;;;;5.40;75.80;;;;;;2349743;57;20168;-76
2022/03/20 01:37:35;;;;;;;;;;;5.40;75.90;;;;;;2349705;57;20136;-77
2022/03/20 01:40:01;;;;;;;;;;;5.40;76.00;;;;;;2349211;57;20097;-76
2022/03/20 01:42:28;;;;;;;;;;;5.40;75.90;;;;;;2349778;57;20073;-76
2022/03/20 01:44:55;;;;;;;;;;;5.50;76.00;;;;;;2349544;57;20085;-76
2022/03/20 01:47:21;;;;;;;;;;;5.40;75.90;;;;;;2596850;53;20077;-76
2022/03/20 01:49:47;;;;;;;;;;;5.40;75.80;;;;;;2347596;57;20364;-77
2022/03/20 01:52:15;;;;;;;;;;;5.40;75.90;;;;;;2349652;57;20156;-76
2022/03/20 01:54:43;;;;;;;;;;;5.30;76.00;;;;;;2349733;57;20132;-77
2022/03/20 01:57:09;;;;;;;;;;;5.30;76.00;;;;;;2596896;53;20065;-77
2022/03/20 01:59:36;;;;;;;;;;;5.30;76.00;;;;;;2349225;57;20383;-77
2022/03/20 02:02:03;;;;;;;;;;;5.20;76.00;;;;;;2597268;53;20065;-77
2022/03/20 02:04:30;;;;;;;;;;;5.30;76.00;;;;;;2349105;57;20072;-76
2022/03/20 02:06:58;;;;;;;;;;;5.30;76.80;;;;;;2595097;53;20069;-77
2022/03/20 02:09:24;;;;;;;;;;;5.30;76.00;;;;;;2349293;57;20125;-76
2022/03/20 02:11:51;;;;;;;;;;;5.30;75.90;;;;;;2349903;57;20080;-77
2022/03/20 02:14:18;;;;;;;;;;;5.30;75.90;;;;;;2597081;52;20073;-76
2022/03/20 02:16:45;;;;;;;;;;;5.20;75.90;;;;;;2349633;57;20261;-77
2022/03/20 02:19:13;;;;;;;;;;;5.20;75.90;;;;;;2348970;57;20085;-76
2022/03/20 02:21:40;;;;;;;;;;;5.20;76.00;;;;;;2597547;52;20077;-76
2022/03/20 02:24:26;;;;;;;;;;;5.20;75.90;;;;;;2348105;57;20057;-77
2022/03/20 02:27:01;;;;;;;;;;;5.20;76.00;;;;;;2349570;57;20065;-77
2022/03/20 02:29:27;;;;;;;;;;;5.20;76.10;;;;;;2349295;57;20131;-76
2022/03/20 02:31:54;;;;;;;;;;;5.20;76.10;;;;;;2503099;52;71502;-78
2022/03/20 02:34:20;;;;;;;;;;;5.10;76.10;;;;;;2295988;58;20068;-80
2022/03/20 02:36:47;;;;;;;;;;;5.20;76.20;;;;;;2296003;58;20088;-80
2022/03/20 02:39:13;;;;;;;;;;;5.20;76.20;;;;;;2530107;55;20056;-80
2022/03/20 02:41:40;;;;;;;;;;;5.20;76.00;;;;;;2295947;58;20161;-80
2022/03/20 02:44:06;;;;;;;;;;;5.10;75.80;;;;;;2295947;58;20151;-81
2022/03/20 02:46:37;;;;;;;;;;;5.10;75.80;;;;;;2296231;58;20079;-80
2022/03/20 02:49:05;;;;;;;;;;;5.10;75.60;;;;;;2296020;58;20075;-81
2022/03/20 02:51:32;;;;;;;;;;;5.10;75.60;;;;;;2296182;58;20055;-80
2022/03/20 02:53:58;;;;;;;;;;;5.10;75.70;;;;;;2295921;58;20107;-80
2022/03/20 02:56:26;;;;;;;;;;;5.10;75.60;;;;;;2531355;55;20087;-80
2022/03/20 02:58:52;;;;;;;;;;;5.10;75.60;;;;;;2531531;55;20071;-81
2022/03/20 03:01:19;;;;;;;;;;;5.10;75.00;;;;;;2296168;58;20059;-81
2022/03/20 03:03:45;;;;;;;;;;;5.10;75.40;;;;;;2296185;58;20151;-80
2022/03/20 03:06:12;;;;;;;;;;;5.10;75.40;;;;;;2295897;58;20094;-79
2022/03/20 03:11:23;;;;;;;;;;;5.00;75.20;;;;;;2295851;58;20062;-80
2022/03/20 03:13:50;;;;;;;;;;;5.00;75.30;;;;;;2531559;55;20059;-80
2022/03/20 03:16:16;;;;;;;;;;;5.00;75.40;;;;;;2296001;58;20091;-80
2022/03/20 03:18:44;;;;;;;;;;;5.00;75.30;;;;;;2295808;58;20067;-79
2022/03/20 03:21:11;;;;;;;;;;;5.00;75.30;;;;;;2531428;55;20063;-80
2022/03/20 03:23:38;;;;;;;;;;;5.00;75.30;;;;;;2296022;58;20071;-80
2022/03/20 03:26:05;;;;;;;;;;;4.90;75.20;;;;;;2295801;58;20083;-80
2022/03/20 03:28:34;;;;;;;;;;;4.90;75.30;;;;;;2531755;55;20086;-80
2022/03/20 03:31:01;;;;;;;;;;;4.90;75.30;;;;;;2531186;55;20075;-80
2022/03/20 03:33:27;;;;;;;;;;;4.90;75.40;;;;;;2295277;58;20142;-79
2022/03/20 03:35:54;;;;;;;;;;;4.90;75.40;;;;;;2296009;58;20071;-81
2022/03/20 03:38:22;;;;;;;;;;;4.90;75.30;;;;;;2296215;58;20091;-80
2022/03/20 03:40:49;;;;;;;;;;;4.90;75.10;;;;;;2530059;55;20107;-79
2022/03/20 03:43:17;;;;;;;;;;;4.90;75.00;;;;;;2531733;55;20071;-81
2022/03/20 03:45:44;;;;;;;;;;;4.90;75.00;;;;;;2296070;58;20120;-80
2022/03/20 03:48:11;;;;;;;;;;;4.90;74.80;;;;;;2296158;58;20091;-80
2022/03/20 03:50:38;;;;;;;;;;;4.90;74.70;;;;;;2295269;58;20376;-80
2022/03/20 03:53:05;;;;;;;;;;;4.90;74.70;;;;;;2295921;58;20067;-80
2022/03/20 03:55:32;;;;;;;;;;;4.90;74.70;;;;;;2296235;58;20067;-80
2022/03/20 03:57:59;;;;;;;;;;;4.90;74.60;;;;;;2529615;55;20083;-81
2022/03/20 04:00:26;;;;;;;;;;;4.90;74.50;;;;;;2531326;55;20104;-80
2022/03/20 04:02:53;;;;;;;;;;;4.90;74.50;;;;;;2531569;55;20062;-79
2022/03/20 04:05:19;;;;;;;;;;;4.80;74.40;;;;;;2531263;55;20147;-80
2022/03/20 04:07:46;;;;;;;;;;;4.90;74.40;;;;;;2296092;58;20103;-79
2022/03/20 04:10:12;;;;;;;;;;;4.90;74.20;;;;;;2295742;58;20304;-80
2022/03/20 04:12:40;;;;;;;;;;;4.90;74.10;;;;;;2294941;58;20127;-80
2022/03/20 04:15:07;;;;;;;;;;;4.80;73.90;;;;;;2295749;58;20082;-80
2022/03/20 04:17:34;;;;;;;;;;;4.80;73.70;;;;;;2295780;58;20123;-81
2022/03/20 04:20:01;;;;;;;;;;;4.80;73.80;;;;;;2295970;58;20071;-80
2022/03/20 04:22:28;;;;;;;;;;;4.80;73.70;;;;;;2531500;55;20087;-80
2022/03/20 04:24:55;;;;;;;;;;;4.70;73.90;;;;;;2531566;55;20079;-79
2022/03/20 04:27:22;;;;;;;;;;;4.70;73.90;;;;;;2296266;58;20334;-80
2022/03/20 04:29:48;;;;;;;;;;;4.70;73.80;;;;;;2294706;58;20051;-80
2022/03/20 04:32:15;;;;;;;;;;;4.60;73.80;;;;;;2296182;58;20275;-80
2022/03/20 04:34:41;;;;;;;;;;;4.70;73.90;;;;;;2295991;58;20123;-80
2022/03/20 04:37:08;;;;;;;;;;;4.70;73.70;;;;;;2296041;58;20154;-80
2022/03/20 04:39:35;;;;;;;;;;;4.70;73.70;;;;;;2531035;55;20059;-80
2022/03/20 04:42:02;;;;;;;;;;;4.70;73.60;;;;;;2295991;58;20082;-80
2022/03/20 04:44:29;;;;;;;;;;;4.70;73.60;;;;;;2295909;58;20059;-80
2022/03/20 04:46:55;;;;;;;;;;;4.70;73.50;;;;;;2296118;58;20118;-80
2022/03/20 05:00:23;;;;;;;;;;;4.70;73.30;;;;;;2295570;58;20079;-79
2022/03/20 05:02:50;;;;;;;;;;;4.70;73.30;;;;;;2531424;55;20122;-79
2022/03/20 05:05:16;;;;;;;;;;;4.60;73.20;;;;;;2530894;55;20107;-78
2022/03/20 05:07:43;;;;;;;;;;;4.60;73.20;;;;;;2531249;55;20392;-78
2022/03/20 05:15:40;;;;;;;;;;;4.50;73.00;;;;;;2295577;58;20127;-79
2022/03/20 05:18:07;;;;;;;;;;;4.40;73.30;;;;;;2530267;54;20083;-79
2022/03/20 05:20:33;;;;;;;;;;;4.40;73.20;;;;;;2294949;58;20132;-80
2022/03/20 05:23:00;;;;;;;;;;;4.40;73.30;;;;;;2295065;58;20430;-79
2022/03/20 05:25:28;;;;;;;;;;;4.40;73.10;;;;;;2295747;58;20148;-79
2022/03/20 05:27:54;;;;;;;;;;;4.40;73.00;;;;;;2295914;58;20071;-80
2022/03/20 05:30:21;;;;;;;;;;;4.40;73.90;;;;;;2295344;58;20063;-79
2022/03/20 05:32:48;;;;;;;;;;;4.40;73.10;;;;;;2531676;55;20060;-80
2022/03/20 05:35:16;;;;;;;;;;;4.50;73.30;;;;;;2295960;58;20352;-79
2022/03/20 05:37:42;;;;;;;;;;;4.40;72.80;;;;;;2531525;55;20067;-79
2022/03/20 05:40:11;;;;;;;;;;;4.50;72.70;;;;;;2530701;54;20087;-79
2022/03/20 05:42:37;;;;;;;;;;;4.50;72.80;;;;;;2531584;55;20071;-79
2022/03/20 05:45:04;;;;;;;;;;;4.40;72.70;;;;;;2530514;55;20083;-79
2022/03/20 05:47:31;;;;;;;;;;;4.40;72.70;;;;;;2295459;58;20075;-79
2022/03/20 05:49:59;;;;;;;;;;;4.40;72.60;;;;;;2295424;58;20147;-79
2022/03/20 05:52:27;;;;;;;;;;;4.40;72.60;;;;;;2295922;58;20071;-79
2022/03/20 05:54:53;;;;;;;;;;;4.40;73.00;;;;;;2295990;58;20071;-79
2022/03/20 06:00:16;;;;;;;;;;;4.40;72.70;;;;;;2295724;58;20130;-79
2022/03/20 06:02:43;;;;;;;;;;;4.40;72.50;;;;;;2530794;55;20170;-81
2022/03/20 06:05:10;;;;;;;;;;;4.40;72.50;;;;;;2296297;58;20074;-80
2022/03/20 06:07:39;;;;;;;;;;;4.50;72.60;;;;;;2295929;58;20055;-79
2022/03/20 06:10:08;;;;;;;;;;;4.50;72.50;;;;;;2294947;58;20098;-79
2022/03/20 06:12:35;;;;;;;;;;;4.50;72.20;;;;;;2531190;55;20067;-79
2022/03/20 06:15:01;;;;;;;;;;;4.50;72.00;;;;;;2296144;58;20110;-80
2022/03/20 06:17:28;;;;;;;;;;;4.50;72.00;;;;;;2530388;55;20099;-80
2022/03/20 06:19:54;;;;;;;;;;;4.50;72.00;;;;;;2295523;58;20292;-80
2022/03/20 06:22:21;;;;;;;;;;;4.50;71.90;;;;;;2531639;54;20119;-81
2022/03/20 06:24:47;;;;;;;;;;;4.50;72.00;;;;;;2295938;58;20074;-80
2022/03/20 06:27:13;;;;;;;;;;;4.50;71.90;;;;;;2295862;58;20207;-80
2022/03/20 06:29:40;;;;;;;;;;;4.50;71.70;;;;;;2531154;54;20131;-80
2022/03/20 06:32:07;;;;;;;;;;;4.50;71.50;;;;;;2531653;55;20087;-80
2022/03/20 06:34:34;;;;;;;;;;;4.50;70.90;;;;;;2296042;58;20375;-80
2022/03/20 06:37:00;;;;;;;;;;;4.60;71.90;;;;;;2296295;58;20144;-80
2022/03/20 06:39:27;;;;;;;;;;;4.60;72.10;;;;;;2295746;58;20115;-80
2022/03/20 06:41:53;;;;;;;;;;;4.60;72.50;;;;;;2296270;58;20146;-80
2022/03/20 06:44:21;;;;;;;;;;;4.60;71.60;;;;;;2295904;58;20067;-80
2022/03/20 06:46:48;;;;;;;;;;;4.60;71.50;;;;;;2531671;55;20356;-80
2022/03/20 06:49:14;;;;;;;;;;;4.60;71.20;;;;;;2295912;58;20068;-80
2022/03/20 06:51:41;;;;;;;;;;;4.60;71.00;;;;;;2296098;58;20139;-80
2022/03/20 06:54:07;;;;;;;;;;;4.70;71.00;;;;;;2295904;58;20139;-79
2022/03/20 06:56:34;;;;;;;;;;;4.70;71.00;;;;;;2531649;55;20138;-81
2022/03/20 06:59:00;;;;;;;;;;;4.70;70.70;;;;;;2295640;58;20199;-81
2022/03/20 07:01:28;;;;;;;;;;;4.80;70.60;;;;;;2531073;55;20088;-81
2022/03/20 07:03:54;;;;;;;;;;;4.80;70.20;;;;;;2295583;58;20123;-80
2022/03/20 07:06:26;;;;;;;;;;;4.90;69.80;;;;;;2531823;55;20324;-81
2022/03/20 07:08:58;;;;;;;;;;;4.90;69.50;;;;;;2295613;58;20091;-80
2022/03/20 07:11:26;;;;;;;;;;;4.90;69.50;;;;;;2531322;55;20067;-80
2022/03/20 07:13:53;;;;;;;;;;;5.00;69.70;;;;;;2296365;58;20378;-79
2022/03/20 07:16:21;;;;;;;;;;;5.00;68.90;;;;;;2531701;55;20063;-81
2022/03/20 07:18:47;;;;;;;;;;;5.00;68.60;;;;;;2531184;55;20119;-80
2022/03/20 07:21:14;;;;;;;;;;;5.10;68.20;;;;;;2531836;55;20067;-81
2022/03/20 07:23:40;;;;;;;;;;;5.20;67.80;;;;;;2531549;55;20103;-81
2022/03/20 07:31:48;;;;;;;;;;;5.30;66.90;;;;;;2276209;58;20119;-81
2022/03/20 07:34:15;;;;;;;;;;;5.40;66.60;;;;;;2294650;58;20111;-80
2022/03/20 07:36:41;;;;;;;;;;;5.40;65.80;;;;;;2296019;58;20060;-80
2022/03/20 07:39:08;;;;;;;;;;;5.50;65.80;;;;;;2531048;55;20086;-80
2022/03/20 07:41:34;;;;;;;;;;;5.60;65.30;;;;;;2531756;55;20103;-81
2022/03/20 07:44:01;;;;;;;;;;;5.70;65.20;;;;;;2296396;58;20138;-80
2022/03/20 07:46:27;;;;;;;;;;;5.70;64.30;;;;;;2296105;58;20094;-80
2022/03/20 07:51:30;;;;;;;;;;;5.90;63.60;;;;;;2350334;57;20062;-74
2022/03/20 07:53:56;;;;;;;;;;;6.00;63.50;;;;;;2350334;57;20118;-77
2022/03/20 07:56:23;;;;;;;;;;;6.00;62.30;;;;;;2351256;57;20071;-77
2022/03/20 07:58:49;;;;;;;;;;;6.00;61.70;;;;;;2350703;57;20082;-74
2022/03/20 08:01:16;;;;;;;;;;;6.10;61.50;;;;;;2598881;52;20078;-76
2022/03/20 08:03:42;;;;;;;;;;;6.20;60.90;;;;;;2599077;53;20074;-76
2022/03/20 08:06:09;;;;;;;;;;;6.20;60.70;;;;;;2350272;57;20118;-76
2022/03/20 08:08:39;;;;;;;;;;;6.30;60.60;;;;;;2596788;53;20110;-76
2022/03/20 08:11:06;;;;;;;;;;;6.30;59.50;;;;;;2348244;57;20098;-76
2022/03/20 08:13:32;;;;;;;;;;;6.40;59.30;;;;;;2348791;57;20095;-74
2022/03/20 08:16:02;;;;;;;;;;;6.40;59.50;;;;;;2350129;57;20082;-75
2022/03/20 08:18:29;;;;;;;;;;;6.50;59.00;;;;;;2350572;57;20070;-75
2022/03/20 08:20:56;;;;;;;;;;;6.50;58.40;;;;;;2348152;57;20131;-75
2022/03/20 08:23:22;;;;;;;;;;;6.60;57.70;;;;;;2597725;53;20066;-75
2022/03/20 08:25:49;;;;;;;;;;;6.60;57.30;;;;;;2598413;53;20077;-75
2022/03/20 08:28:16;;;;;;;;;;;6.70;56.90;;;;;;2349406;57;20094;-74
2022/03/20 08:30:42;;;;;;;;;;;6.80;57.10;;;;;;2349235;57;20326;-75
2022/03/20 08:33:09;;;;;;;;;;;6.90;57.00;;;;;;2531386;52;20090;-75
2022/03/20 08:35:36;;;;;;;;;;;7.00;57.70;;;;;;2361901;57;20444;-74
2022/03/20 08:38:03;;;;;;;;;;;7.00;56.90;;;;;;2362262;57;20559;-74
2022/03/20 08:40:30;;;;;;;;;;;7.10;57.60;;;;;;2361178;57;20428;-74
2022/03/20 08:42:56;;;;;;;;;;;7.10;56.70;;;;;;2365630;57;20081;-74
2022/03/20 08:45:23;;;;;;;;;;;7.20;55.70;;;;;;2366487;57;20090;-74
2022/03/20 08:47:50;;;;;;;;;;;7.30;55.30;;;;;;2367217;57;20344;-74
2022/03/20 08:50:18;;;;;;;;;;;7.30;55.00;;;;;;2367073;57;20062;-74
2022/03/20 08:52:45;;;;;;;;;;;7.30;53.90;;;;;;2367035;57;20082;-74
2022/03/20 08:55:12;;;;;;;;;;;7.40;53.90;;;;;;2367120;57;20142;-73
2022/03/20 08:57:39;;;;;;;;;;;7.50;54.40;;;;;;2365340;57;20070;-74
2022/03/20 09:00:08;;;;;;;;;;;7.50;53.80;;;;;;2366292;57;20078;-73
2022/03/20 09:02:34;;;;;;;;;;;7.60;53.70;;;;;;2366081;57;20062;-74
2022/03/20 09:05:01;;;;;;;;;;;7.60;54.20;;;;;;2365199;57;20150;-75
2022/03/20 09:07:27;;;;;;;;;;;7.70;54.90;;;;;;2617540;53;20129;-74
2022/03/20 09:09:54;;;;;;;;;;;7.70;53.90;;;;;;2364967;57;20177;-74
2022/03/20 09:12:20;;;;;;;;;;;7.80;54.10;;;;;;2363858;57;20066;-72
2022/03/20 09:14:47;;;;;;;;;;;7.90;54.30;;;;;;2366060;57;20121;-73
2022/03/20 09:19:58;;;;;;;;;;;8.00;53.90;;;;;;2365642;57;20062;-73
2022/03/20 09:22:25;;;;;;;;;;;8.00;54.60;;;;;;2365456;57;20472;-73
2022/03/20 09:24:52;;;;;;;;;;;8.10;53.20;;;;;;2616594;53;20146;-73
2022/03/20 09:27:22;;;;;;;;;;;8.10;53.00;;;;;;2616302;53;20138;-73
2022/03/20 09:29:49;;;;;;;;;;;8.10;52.40;;;;;;2617345;53;20101;-74
2022/03/20 09:32:15;;;;;;;;;;;8.20;52.00;;;;;;2368903;56;20168;-74
2022/03/20 09:34:42;;;;;;;;;;;8.20;52.30;;;;;;2382828;56;20076;-73
2022/03/20 09:37:08;;;;;;;;;;;8.30;52.10;;;;;;2383407;56;20312;-74
2022/03/20 09:39:35;;;;;;;;;;;8.30;52.30;;;;;;2383228;56;20414;-74
2022/03/20 09:42:02;;;;;;;;;;;8.40;52.60;;;;;;2383765;56;20069;-74
2022/03/20 09:44:33;;;;;;;;;;;8.50;52.00;;;;;;2638529;52;20176;-73
2022/03/20 09:47:00;;;;;;;;;;;8.60;51.50;;;;;;2383812;56;20133;-71
2022/03/20 09:49:28;;;;;;;;;;;8.60;51.40;;;;;;2638626;52;20168;-72
2022/03/20 09:51:54;;;;;;;;;;;8.70;51.40;;;;;;2383433;56;20140;-73
2022/03/20 09:54:21;;;;;;;;;;;8.70;50.70;;;;;;2383867;56;20308;-75
2022/03/20 09:56:50;;;;;;;;;;;8.80;50.10;;;;;;2638709;52;20133;-74
2022/03/20 09:59:17;;;;;;;;;;;8.80;50.40;;;;;;2383468;56;20136;-73
2022/03/20 10:01:44;;;;;;;;;;;8.90;50.30;;;;;;2383515;56;20101;-72
2022/03/20 10:04:11;;;;;;;;;;;8.90;50.50;;;;;;2383884;56;20153;-73
2022/03/20 10:06:38;;;;;;;;;;;9.00;50.60;;;;;;2383324;56;20156;-73
2022/03/20 10:09:06;;;;;;;;;;;9.10;51.40;;;;;;2383219;56;20389;-73
2022/03/20 10:11:32;;;;;;;;;;;9.10;50.90;;;;;;2383156;56;20125;-73
2022/03/20 10:14:06;;;;;;;;;;;9.20;51.20;;;;;;2383833;56;20081;-72
2022/03/20 10:16:32;;;;;;;;;;;9.20;49.70;;;;;;2359516;56;20144;-73
2022/03/20 10:18:59;;;;;;;;;;;9.30;49.50;;;;;;2639283;52;20258;-72
2022/03/20 10:27:31;;;;;;;;;;;9.60;50.20;;;;;;2579856;52;20301;-73
2022/03/20 10:29:58;;;;;;;;;;;9.90;49.60;;;;;;2320835;58;20135;-75
2022/03/20 10:32:25;;;;;;;;;;;10.00;49.30;;;;;;2348531;57;20066;-74
2022/03/20 10:34:53;;;;;;;;;;;10.00;49.10;;;;;;2609918;53;20081;-72
2022/03/20 10:37:20;;;;;;;;;;;10.00;48.70;;;;;;2347641;57;20146;-77
2022/03/20 10:39:47;;;;;;;;;;;10.00;48.90;;;;;;2359190;57;20312;-73
2022/03/20 10:42:14;;;;;;;;;;;10.10;47.90;;;;;;2360354;57;20090;-74
2022/03/20 10:44:41;;;;;;;;;;;10.00;47.60;;;;;;2359461;57;20050;-74
2022/03/20 10:47:12;;;;;;;;;;;10.10;47.40;;;;;;2359423;57;20420;-73
2022/03/20 10:49:39;;;;;;;;;;;10.10;47.60;;;;;;2359631;57;20082;-74
2022/03/20 10:52:07;;;;;;;;;;;10.20;48.10;;;;;;2359264;57;20198;-74
2022/03/20 10:54:41;;;;;;;;;;;10.20;48.50;;;;;;2359192;57;20070;-73
2022/03/20 10:57:08;;;;;;;;;;;10.30;48.00;;;;;;2360354;57;20070;-73
2022/03/20 10:59:35;;;;;;;;;;;10.40;47.70;;;;;;2359329;57;20173;-74
2022/03/20 11:02:02;;;;;;;;;;;10.40;47.80;;;;;;2359844;57;20066;-74
2022/03/20 11:04:29;;;;;;;;;;;10.50;47.50;;;;;;2360497;57;20094;-74
2022/03/20 11:06:57;;;;;;;;;;;10.60;47.20;;;;;;2358114;57;20086;-74
2022/03/20 11:09:24;;;;;;;;;;;10.70;47.50;;;;;;2360377;57;20062;-76
2022/03/20 11:11:51;;;;;;;;;;;10.70;48.10;;;;;;2360772;57;20070;-76
2022/03/20 11:14:19;;;;;;;;;;;10.70;47.50;;;;;;2361088;57;20078;-77
2022/03/20 11:16:48;;;;;;;;;;;10.90;46.90;;;;;;2360799;57;20138;-77
2022/03/20 11:19:15;;;;;;;;;;;10.90;46.00;;;;;;2360728;57;20078;-77
2022/03/20 11:21:44;;;;;;;;;;;11.00;45.80;;;;;;2360968;57;20147;-77
2022/03/20 11:24:11;;;;;;;;;;;11.10;45.60;;;;;;2359352;57;20119;-77
2022/03/20 11:26:39;;;;;;;;;;;11.20;46.00;;;;;;2360935;57;20078;-77
2022/03/20 11:29:07;;;;;;;;;;;11.20;46.60;;;;;;2359982;57;20141;-77
2022/03/20 11:31:35;;;;;;;;;;;11.30;46.30;;;;;;2610787;52;20078;-77
2022/03/20 11:34:02;;;;;;;;;;;11.40;46.30;;;;;;2361121;57;20125;-77
2022/03/20 11:36:29;;;;;;;;;;;11.50;45.50;;;;;;2360834;57;20348;-77
2022/03/20 11:39:09;;;;;;;;;;;11.60;45.20;;;;;;2360613;57;20093;-77
2022/03/20 11:41:36;;;;;;;;;;;11.70;45.10;;;;;;2359339;57;20141;-77
2022/03/20 11:44:20;;;;;;;;;;;11.70;46.30;;;;;;2360611;57;20309;-77
2022/03/20 11:46:47;;;;;;;;;;;11.70;44.00;;;;;;2610496;53;20090;-77
2022/03/20 11:49:20;;;;;;;;;;;11.90;44.20;;;;;;2360488;57;20142;-76
2022/03/20 11:51:51;;;;;;;;;;;11.90;43.60;;;;;;2360666;57;20066;-76
2022/03/20 11:54:18;;;;;;;;;;;12.00;41.90;;;;;;2360505;57;20089;-76
2022/03/20 11:56:45;;;;;;;;;;;12.00;41.20;;;;;;2360774;57;20175;-77
2022/03/20 11:59:43;;;;;;;;;;;12.10;41.90;;;;;;2608684;52;20141;-77
2022/03/20 12:02:12;;;;;;;;;;;12.20;41.40;;;;;;2360177;57;20150;-76
2022/03/20 12:04:45;;;;;;;;;;;12.20;40.80;;;;;;2360895;57;20070;-77
2022/03/20 12:07:16;;;;;;;;;;;12.30;42.40;;;;;;2360836;57;20243;-76
2022/03/20 12:09:57;;;;;;;;;;;12.40;42.70;;;;;;2360689;57;20085;-76
2022/03/20 12:12:33;;;;;;;;;;;12.40;43.70;;;;;;2360824;57;20090;-76
2022/03/20 12:15:06;;;;;;;;;;;12.50;41.50;;;;;;2360561;57;20050;-76
2022/03/20 12:17:52;;;;;;;;;;;12.50;40.10;;;;;;2608207;52;20070;-76
2022/03/20 12:20:37;;;;;;;;;;;12.60;41.80;;;;;;2359735;57;20086;-76
2022/03/20 12:23:22;;;;;;;;;;;12.70;42.00;;;;;;2360805;57;20078;-79
2022/03/20 12:25:49;;;;;;;;;;;12.80;39.40;;;;;;2360853;57;20145;-77
2022/03/20 12:28:28;;;;;;;;;;;12.90;39.70;;;;;;2362107;57;20070;-79
2022/03/20 12:30:54;;;;;;;;;;;12.90;39.00;;;;;;2361084;57;20081;-79
2022/03/20 12:33:25;;;;;;;;;;;13.00;38.90;;;;;;2360325;57;20309;-77
2022/03/20 12:35:52;;;;;;;;;;;13.00;38.60;;;;;;2357695;57;20106;-77
2022/03/20 12:38:35;;;;;;;;;;;13.00;37.90;;;;;;2360152;57;20257;-79
2022/03/20 12:41:13;;;;;;;;;;;13.10;38.20;;;;;;2361864;57;20078;-79
2022/03/20 12:43:40;;;;;;;;;;;13.10;38.40;;;;;;2360943;57;20066;-78
2022/03/20 12:46:07;;;;;;;;;;;13.20;36.50;;;;;;2361082;57;20081;-75
2022/03/20 12:48:35;;;;;;;;;;;13.20;36.90;;;;;;2361511;57;20062;-80
2022/03/20 12:51:06;;;;;;;;;;;13.30;38.00;;;;;;2362319;57;20126;-80
2022/03/20 12:53:37;;;;;;;;;;;13.30;39.30;;;;;;2612310;52;20312;-81
2022/03/20 12:56:06;;;;;;;;;;;13.40;40.10;;;;;;2362414;57;20085;-79
2022/03/20 12:58:32;;;;;;;;;;;13.40;37.30;;;;;;2362046;57;20114;-77
2022/03/20 13:00:59;;;;;;;;;;;13.50;38.90;;;;;;2361063;57;20066;-79
2022/03/20 13:03:26;;;;;;;;;;;13.50;37.00;;;;;;2362109;57;20070;-81
2022/03/20 13:05:54;;;;;;;;;;;13.60;37.60;;;;;;2362628;57;20162;-81
2022/03/20 13:08:21;;;;;;;;;;;13.60;35.90;;;;;;2362564;57;20066;-78
2022/03/20 13:10:48;;;;;;;;;;;13.60;37.10;;;;;;2361108;57;20059;-79
2022/03/20 13:13:19;;;;;;;;;;;13.70;37.90;;;;;;2362508;57;20066;-80
2022/03/20 13:15:46;;;;;;;;;;;13.70;36.50;;;;;;2611115;52;20117;-78
2022/03/20 13:18:13;;;;;;;;;;;13.70;37.50;;;;;;2360006;57;20066;-79
2022/03/20 13:20:41;;;;;;;;;;;13.70;38.90;;;;;;2361352;57;20082;-78
2022/03/20 13:23:08;;;;;;;;;;;13.80;35.50;;;;;;2360755;57;20133;-78
2022/03/20 13:25:38;;;;;;;;;;;13.80;34.20;;;;;;2360564;57;20182;-81
2022/03/20 13:28:04;;;;;;;;;;;13.70;33.50;;;;;;2610111;53;20118;-75
2022/03/20 13:30:34;;;;;;;;;;;13.70;34.90;;;;;;2360036;57;20102;-74
2022/03/20 13:33:01;;;;;;;;;;;13.70;34.90;;;;;;2360351;57;20081;-74
2022/03/20 13:35:29;;;;;;;;;;;13.80;35.80;;;;;;2360555;57;20082;-74
2022/03/20 13:37:56;;;;;;;;;;;13.90;36.70;;;;;;2360277;57;20137;-74
2022/03/20 13:40:24;;;;;;;;;;;13.80;33.70;;;;;;2360283;57;20074;-74
2022/03/20 13:42:50;;;;;;;;;;;13.90;37.10;;;;;;2360044;57;20093;-75
2022/03/20 13:45:17;;;;;;;;;;;13.90;36.30;;;;;;2360242;57;20082;-75
2022/03/20 13:47:44;;;;;;;;;;;13.90;36.60;;;;;;2359794;57;20070;-75
2022/03/20 13:50:13;;;;;;;;;;;14.00;38.00;;;;;;2360156;57;20078;-75
2022/03/20 13:52:40;;;;;;;;;;;14.00;36.80;;;;;;2360856;57;20082;-74
2022/03/20 13:55:09;;;;;;;;;;;14.00;34.60;;;;;;2360372;57;20074;-75
2022/03/20 13:57:48;;;;;;;;;;;14.00;34.70;;;;;;2611017;53;20065;-74
2022/03/20 14:00:15;;;;;;;;;;;14.00;35.30;;;;;;2359727;57;20213;-76
2022/03/20 14:02:42;;;;;;;;;;;14.00;34.90;;;;;;2360782;57;20119;-77
2022/03/20 14:05:10;;;;;;;;;;;14.00;34.00;;;;;;2359445;57;20149;-76
2022/03/20 14:07:36;;;;;;;;;;;14.00;36.80;;;;;;2360265;57;20129;-77
2022/03/20 14:10:15;;;;;;;;;;;14.10;33.40;;;;;;2359929;57;20054;-77
2022/03/20 14:12:41;;;;;;;;;;;14.10;37.00;;;;;;2360182;57;20069;-76
2022/03/20 14:15:12;;;;;;;;;;;14.10;34.10;;;;;;2360328;57;20141;-74
2022/03/20 14:17:40;;;;;;;;;;;14.20;37.40;;;;;;2360235;57;20082;-75
2022/03/20 14:20:09;;;;;;;;;;;14.20;37.90;;;;;;2360166;57;20074;-75
2022/03/20 14:22:45;;;;;;;;;;;14.20;38.60;;;;;;2609451;52;20145;-75
2022/03/20 14:25:29;;;;;;;;;;;14.20;37.50;;;;;;2360144;57;20102;-75
2022/03/20 14:27:58;;;;;;;;;;;14.30;35.70;;;;;;2360345;57;20065;-75
2022/03/20 14:41:26;;;;;;;;;;;14.30;40.10;;;;;;2407374;52;20126;-72
2022/03/20 14:44:13;;;;;;;;;;;14.30;36.20;;;;;;2379551;56;20069;-73
2022/03/20 14:46:40;;;;;;;;;;;14.30;36.20;;;;;;2490122;52;20065;-75
2022/03/20 14:49:08;;;;;;;;;;;14.20;36.70;;;;;;2379553;52;20066;-73
2022/03/20 14:51:34;;;;;;;;;;;14.30;38.60;;;;;;2379427;56;20093;-74
2022/03/20 14:54:01;;;;;;;;;;;14.30;37.80;;;;;;2378749;56;20109;-73
2022/03/20 14:56:28;;;;;;;;;;;14.30;35.70;;;;;;2379566;56;20073;-73
2022/03/20 14:58:57;;;;;;;;;;;14.30;38.70;;;;;;2379130;56;20069;-75
2022/03/20 15:01:24;;;;;;;;;;;14.30;38.90;;;;;;2379485;56;20335;-74
2022/03/20 15:03:50;;;;;;;;;;;14.40;37.70;;;;;;2379634;56;20073;-74
2022/03/20 15:06:17;;;;;;;;;;;14.50;38.10;;;;;;2378734;56;20097;-76
2022/03/20 15:11:28;;;;;;;;;;;14.50;35.90;;;;;;2378620;56;20132;-76
2022/03/20 15:13:56;;;;;;;;;;;14.40;34.70;;;;;;2379312;56;20122;-77
2022/03/20 15:16:23;;;;;;;;;;;14.40;35.70;;;;;;2379416;56;20162;-77
2022/03/20 15:18:50;;;;;;;;;;;14.30;35.80;;;;;;2379310;56;20121;-74
2022/03/20 15:21:17;;;;;;;;;;;14.30;36.20;;;;;;2379364;56;20152;-75
2022/03/20 15:23:43;;;;;;;;;;;14.30;35.80;;;;;;2379465;56;20109;-74